sensor_id;sensor_type;location;lat;lon;timestamp;temperature;humidity
65374;SHT31;52070;53.760;9.678;2024-03-23T00:54:59;6.36;89.45
65374;SHT31;52070;53.760;9.678;2024-03-23T00:57:25;6.31;89.57
65374;SHT31;52070;53.760;9.678;2024-03-23T00:59:52;6.35;89.74
65374;SHT31;52070;53.760;9.678;2024-03-23T01:02:18;6.32;89.81
65374;SHT31;52070;53.760;9.678;2024-03-23T01:04:45;6.31;89.87
65374;SHT31;52070;53.760;9.678;2024-03-23T01:07:11;6.29;90.00
65374;SHT31;52070;53.760;9.678;2024-03-23T01:09:38;6.31;90.11
65374;SHT31;52070;53.760;9.678;2024-03-23T01:12:05;6.31;90.09
65374;SHT31;52070;53.760;9.678;2024-03-23T01:14:31;6.31;90.11
65374;SHT31;52070;53.760;9.678;2024-03-23T01:16:58;6.29;90.11
65374;SHT31;52070;53.760;9.678;2024-03-23T01:19:25;6.20;90.17
65374;SHT31;52070;53.760;9.678;2024-03-23T01:21:50;6.15;90.31
65374;SHT31;52070;53.760;9.678;2024-03-23T01:24:17;6.18;90.43
65374;SHT31;52070;53.760;9.678;2024-03-23T01:26:43;6.20;90.46
65374;SHT31;52070;53.760;9.678;2024-03-23T01:29:10;6.15;90.55
65374;SHT31;52070;53.760;9.678;2024-03-23T01:31:36;6.08;90.57
65374;SHT31;52070;53.760;9.678;2024-03-23T01:34:03;6.14;90.63
65374;SHT31;52070;53.760;9.678;2024-03-23T01:36:29;6.11;90.64
65374;SHT31;52070;53.760;9.678;2024-03-23T01:38:56;6.08;90.74
65374;SHT31;52070;53.760;9.678;2024-03-23T01:41:24;6.02;90.83
65374;SHT31;52070;53.760;9.678;2024-03-23T01:43:51;6.00;90.87
65374;SHT31;52070;53.760;9.678;2024-03-23T01:46:17;6.02;90.94
65374;SHT31;52070;53.760;9.678;2024-03-23T01:48:43;5.95;90.96
65374;SHT31;52070;53.760;9.678;2024-03-23T01:51:09;5.84;91.10
65374;SHT31;52070;53.760;9.678;2024-03-23T01:53:36;5.90;91.20
65374;SHT31;52070;53.760;9.678;2024-03-23T01:56:03;5.87;91.31
65374;SHT31;52070;53.760;9.678;2024-03-23T01:58:30;5.81;91.32
65374;SHT31;52070;53.760;9.678;2024-03-23T02:00:57;5.84;91.28
65374;SHT31;52070;53.760;9.678;2024-03-23T02:03:28;5.73;91.43
65374;SHT31;52070;53.760;9.678;2024-03-23T02:05:54;5.73;91.58
65374;SHT31;52070;53.760;9.678;2024-03-23T02:08:22;5.71;91.74
65374;SHT31;52070;53.760;9.678;2024-03-23T02:10:49;5.70;91.85
65374;SHT31;52070;53.760;9.678;2024-03-23T02:13:17;5.67;91.94
65374;SHT31;52070;53.760;9.678;2024-03-23T02:15:47;5.67;92.03
65374;SHT31;52070;53.760;9.678;2024-03-23T02:18:13;5.66;92.11
65374;SHT31;52070;53.760;9.678;2024-03-23T02:20:39;5.64;92.17
65374;SHT31;52070;53.760;9.678;2024-03-23T02:23:13;5.69;92.29
65374;SHT31;52070;53.760;9.678;2024-03-23T02:25:39;5.61;92.32
65374;SHT31;52070;53.760;9.678;2024-03-23T02:28:06;5.61;92.34
65374;SHT31;52070;53.760;9.678;2024-03-23T02:30:33;5.53;92.35
65374;SHT31;52070;53.760;9.678;2024-03-23T02:32:59;5.57;93.18
65374;SHT31;52070;53.760;9.678;2024-03-23T02:35:25;5.54;92.82
65374;SHT31;52070;53.760;9.678;2024-03-23T02:37:51;5.57;92.80
65374;SHT31;52070;53.760;9.678;2024-03-23T02:40:20;5.51;92.77
65374;SHT31;52070;53.760;9.678;2024-03-23T02:42:46;5.47;92.80
65374;SHT31;52070;53.760;9.678;2024-03-23T02:45:13;5.42;92.84
65374;SHT31;52070;53.760;9.678;2024-03-23T02:47:38;5.53;92.86
65374;SHT31;52070;53.760;9.678;2024-03-23T02:50:06;5.53;92.86
65374;SHT31;52070;53.760;9.678;2024-03-23T02:52:32;5.46;92.81
65374;SHT31;52070;53.760;9.678;2024-03-23T02:54:59;5.40;92.82
65374;SHT31;52070;53.760;9.678;2024-03-23T02:57:25;5.40;92.81
65374;SHT31;52070;53.760;9.678;2024-03-23T02:59:52;5.37;92.85
65374;SHT31;52070;53.760;9.678;2024-03-23T03:02:18;5.33;92.93
65374;SHT31;52070;53.760;9.678;2024-03-23T03:04:44;5.30;92.98
65374;SHT31;52070;53.760;9.678;2024-03-23T03:07:10;5.26;93.03
65374;SHT31;52070;53.760;9.678;2024-03-23T03:09:37;5.25;93.01
65374;SHT31;52070;53.760;9.678;2024-03-23T03:12:07;5.29;93.09
65374;SHT31;52070;53.760;9.678;2024-03-23T03:14:34;5.26;93.14
65374;SHT31;52070;53.760;9.678;2024-03-23T03:17:00;5.25;93.12
65374;SHT31;52070;53.760;9.678;2024-03-23T03:19:27;5.23;93.17
65374;SHT31;52070;53.760;9.678;2024-03-23T03:21:53;5.19;93.22
65374;SHT31;52070;53.760;9.678;2024-03-23T03:24:20;5.13;93.20
65374;SHT31;52070;53.760;9.678;2024-03-23T03:26:46;5.15;93.24
65374;SHT31;52070;53.760;9.678;2024-03-23T03:29:13;5.19;93.30
65374;SHT31;52070;53.760;9.678;2024-03-23T03:31:39;5.18;93.36
65374;SHT31;52070;53.760;9.678;2024-03-23T03:34:06;5.11;93.40
65374;SHT31;52070;53.760;9.678;2024-03-23T03:36:32;5.09;93.45
65374;SHT31;52070;53.760;9.678;2024-03-23T03:38:59;5.06;93.49
65374;SHT31;52070;53.760;9.678;2024-03-23T03:41:25;5.09;93.56
65374;SHT31;52070;53.760;9.678;2024-03-23T03:43:51;5.13;93.63
65374;SHT31;52070;53.760;9.678;2024-03-23T03:46:17;5.09;93.60
65374;SHT31;52070;53.760;9.678;2024-03-23T03:48:44;5.09;93.64
65374;SHT31;52070;53.760;9.678;2024-03-23T03:51:10;5.11;93.67
65374;SHT31;52070;53.760;9.678;2024-03-23T03:53:37;5.08;93.66
65374;SHT31;52070;53.760;9.678;2024-03-23T03:56:03;5.09;93.69
65374;SHT31;52070;53.760;9.678;2024-03-23T03:58:30;4.98;93.70
65374;SHT31;52070;53.760;9.678;2024-03-23T04:00:56;5.02;93.70
65374;SHT31;52070;53.760;9.678;2024-03-23T04:03:23;4.98;93.74
65374;SHT31;52070;53.760;9.678;2024-03-23T04:05:52;5.02;93.75
65374;SHT31;52070;53.760;9.678;2024-03-23T04:08:20;4.98;93.76
65374;SHT31;52070;53.760;9.678;2024-03-23T04:10:46;4.92;93.79
65374;SHT31;52070;53.760;9.678;2024-03-23T04:13:13;5.06;93.82
65374;SHT31;52070;53.760;9.678;2024-03-23T04:15:39;5.02;93.85
65374;SHT31;52070;53.760;9.678;2024-03-23T04:18:06;5.02;93.82
65374;SHT31;52070;53.760;9.678;2024-03-23T04:20:32;4.98;93.79
65374;SHT31;52070;53.760;9.678;2024-03-23T04:22:59;4.99;93.79
65374;SHT31;52070;53.760;9.678;2024-03-23T04:25:25;4.99;93.75
65374;SHT31;52070;53.760;9.678;2024-03-23T04:27:52;4.99;93.74
65374;SHT31;52070;53.760;9.678;2024-03-23T04:30:18;5.02;93.78
65374;SHT31;52070;53.760;9.678;2024-03-23T04:32:46;4.95;93.76
65374;SHT31;52070;53.760;9.678;2024-03-23T04:35:13;4.89;93.77
65374;SHT31;52070;53.760;9.678;2024-03-23T04:37:40;4.88;93.84
65374;SHT31;52070;53.760;9.678;2024-03-23T04:40:07;4.84;93.80
65374;SHT31;52070;53.760;9.678;2024-03-23T04:42:34;4.82;93.87
65374;SHT31;52070;53.760;9.678;2024-03-23T04:45:01;4.86;93.91
65374;SHT31;52070;53.760;9.678;2024-03-23T04:47:28;4.86;93.93
65374;SHT31;52070;53.760;9.678;2024-03-23T04:49:55;4.93;93.96
65374;SHT31;52070;53.760;9.678;2024-03-23T04:52:20;4.88;93.98
65374;SHT31;52070;53.760;9.678;2024-03-23T04:54:47;4.91;93.96
65374;SHT31;52070;53.760;9.678;2024-03-23T04:57:14;4.89;94.20
65374;SHT31;52070;53.760;9.678;2024-03-23T04:59:42;4.88;94.03
65374;SHT31;52070;53.760;9.678;2024-03-23T05:02:08;4.84;93.94
65374;SHT31;52070;53.760;9.678;2024-03-23T05:04:35;4.81;93.94
65374;SHT31;52070;53.760;9.678;2024-03-23T05:07:03;4.74;93.94
65374;SHT31;52070;53.760;9.678;2024-03-23T05:09:30;4.74;94.02
65374;SHT31;52070;53.760;9.678;2024-03-23T05:11:56;4.84;94.07
65374;SHT31;52070;53.760;9.678;2024-03-23T05:14:23;4.86;94.08
65374;SHT31;52070;53.760;9.678;2024-03-23T05:16:49;4.88;94.08
65374;SHT31;52070;53.760;9.678;2024-03-23T05:19:16;4.84;93.99
65374;SHT31;52070;53.760;9.678;2024-03-23T05:21:41;4.81;94.01
65374;SHT31;52070;53.760;9.678;2024-03-23T05:24:08;4.76;93.96
65374;SHT31;52070;53.760;9.678;2024-03-23T05:26:35;4.76;93.93
65374;SHT31;52070;53.760;9.678;2024-03-23T05:29:02;4.75;93.94
65374;SHT31;52070;53.760;9.678;2024-03-23T05:31:30;4.75;93.97
65374;SHT31;52070;53.760;9.678;2024-03-23T05:33:57;4.79;93.99
65374;SHT31;52070;53.760;9.678;2024-03-23T05:36:23;4.78;93.98
65374;SHT31;52070;53.760;9.678;2024-03-23T05:38:50;4.78;93.96
65374;SHT31;52070;53.760;9.678;2024-03-23T05:41:16;4.79;93.96
65374;SHT31;52070;53.760;9.678;2024-03-23T05:43:43;4.81;93.93
65374;SHT31;52070;53.760;9.678;2024-03-23T05:46:09;4.81;93.92
65374;SHT31;52070;53.760;9.678;2024-03-23T05:48:36;4.92;93.89
65374;SHT31;52070;53.760;9.678;2024-03-23T05:51:02;4.92;93.85
65374;SHT31;52070;53.760;9.678;2024-03-23T05:53:29;4.91;93.78
65374;SHT31;52070;53.760;9.678;2024-03-23T05:56:03;4.89;93.73
65374;SHT31;52070;53.760;9.678;2024-03-23T05:58:30;4.91;93.67
65374;SHT31;52070;53.760;9.678;2024-03-23T06:00:58;4.99;93.59
65374;SHT31;52070;53.760;9.678;2024-03-23T06:03:25;4.96;93.55
65374;SHT31;52070;53.760;9.678;2024-03-23T06:05:52;4.96;93.46
65374;SHT31;52070;53.760;9.678;2024-03-23T06:08:19;5.02;93.34
65374;SHT31;52070;53.760;9.678;2024-03-23T06:10:46;4.96;93.20
65374;SHT31;52070;53.760;9.678;2024-03-23T06:13:13;4.86;93.19
65374;SHT31;52070;53.760;9.678;2024-03-23T06:15:39;4.85;93.10
65374;SHT31;52070;53.760;9.678;2024-03-23T06:18:06;4.84;93.16
65374;SHT31;52070;53.760;9.678;2024-03-23T06:20:34;4.93;93.19
65374;SHT31;52070;53.760;9.678;2024-03-23T06:23:00;4.91;93.13
65374;SHT31;52070;53.760;9.678;2024-03-23T06:25:29;4.85;93.09
65374;SHT31;52070;53.760;9.678;2024-03-23T06:27:55;4.82;93.13
65374;SHT31;52070;53.760;9.678;2024-03-23T06:30:24;4.84;93.16
65374;SHT31;52070;53.760;9.678;2024-03-23T06:32:49;4.96;93.21
65374;SHT31;52070;53.760;9.678;2024-03-23T06:35:16;4.95;93.11
65374;SHT31;52070;53.760;9.678;2024-03-23T06:37:42;5.00;93.09
65374;SHT31;52070;53.760;9.678;2024-03-23T06:40:09;5.04;93.01
65374;SHT31;52070;53.760;9.678;2024-03-23T06:42:36;5.06;92.93
65374;SHT31;52070;53.760;9.678;2024-03-23T06:45:03;5.05;92.83
65374;SHT31;52070;53.760;9.678;2024-03-23T06:47:30;5.04;92.75
65374;SHT31;52070;53.760;9.678;2024-03-23T06:49:59;5.08;92.77
65374;SHT31;52070;53.760;9.678;2024-03-23T06:52:27;5.12;92.73
65374;SHT31;52070;53.760;9.678;2024-03-23T06:54:54;5.12;92.70
65374;SHT31;52070;53.760;9.678;2024-03-23T06:57:20;5.19;92.67
65374;SHT31;52070;53.760;9.678;2024-03-23T06:59:47;5.25;92.60
65374;SHT31;52070;53.760;9.678;2024-03-23T07:02:13;5.35;92.45
65374;SHT31;52070;53.760;9.678;2024-03-23T07:04:40;5.33;92.24
65374;SHT31;52070;53.760;9.678;2024-03-23T07:07:06;5.44;91.98
65374;SHT31;52070;53.760;9.678;2024-03-23T07:09:32;5.43;91.80
65374;SHT31;52070;53.760;9.678;2024-03-23T07:11:58;5.53;91.52
65374;SHT31;52070;53.760;9.678;2024-03-23T07:14:25;5.66;91.35
65374;SHT31;52070;53.760;9.678;2024-03-23T07:16:51;5.69;91.22
65374;SHT31;52070;53.760;9.678;2024-03-23T07:19:18;5.73;90.91
65374;SHT31;52070;53.760;9.678;2024-03-23T07:21:45;5.89;90.62
65374;SHT31;52070;53.760;9.678;2024-03-23T07:24:13;6.05;90.19
65374;SHT31;52070;53.760;9.678;2024-03-23T07:26:39;6.12;89.55
65374;SHT31;52070;53.760;9.678;2024-03-23T07:29:06;6.14;89.29
65374;SHT31;52070;53.760;9.678;2024-03-23T07:31:32;6.21;89.15
65374;SHT31;52070;53.760;9.678;2024-03-23T07:33:59;6.25;89.06
65374;SHT31;52070;53.760;9.678;2024-03-23T07:36:25;6.35;88.74
65374;SHT31;52070;53.760;9.678;2024-03-23T07:38:52;6.35;88.33
65374;SHT31;52070;53.760;9.678;2024-03-23T07:41:19;6.44;88.19
65374;SHT31;52070;53.760;9.678;2024-03-23T07:43:47;6.62;88.16
65374;SHT31;52070;53.760;9.678;2024-03-23T07:46:15;6.77;88.13
65374;SHT31;52070;53.760;9.678;2024-03-23T07:48:42;6.86;87.74
65374;SHT31;52070;53.760;9.678;2024-03-23T07:51:10;6.87;87.09
65374;SHT31;52070;53.760;9.678;2024-03-23T07:53:37;6.89;86.84
65374;SHT31;52070;53.760;9.678;2024-03-23T07:56:07;6.90;86.73
65374;SHT31;52070;53.760;9.678;2024-03-23T07:58:34;6.99;86.84
65374;SHT31;52070;53.760;9.678;2024-03-23T08:01:04;7.00;86.56
65374;SHT31;52070;53.760;9.678;2024-03-23T08:03:36;7.06;86.32
65374;SHT31;52070;53.760;9.678;2024-03-23T08:06:10;7.20;86.23
65374;SHT31;52070;53.760;9.678;2024-03-23T08:08:38;7.34;85.66
65374;SHT31;52070;53.760;9.678;2024-03-23T08:11:04;7.51;84.70
65374;SHT31;52070;53.760;9.678;2024-03-23T08:13:31;7.55;83.46
65374;SHT31;52070;53.760;9.678;2024-03-23T08:15:58;7.71;83.53
65374;SHT31;52070;53.760;9.678;2024-03-23T08:18:25;7.77;83.22
65374;SHT31;52070;53.760;9.678;2024-03-23T08:21:05;7.79;82.81
65374;SHT31;52070;53.760;9.678;2024-03-23T08:23:33;7.75;82.87
65374;SHT31;52070;53.760;9.678;2024-03-23T08:26:00;7.86;82.65
65374;SHT31;52070;53.760;9.678;2024-03-23T08:28:27;7.86;82.24
65374;SHT31;52070;53.760;9.678;2024-03-23T08:30:54;7.89;82.55
65374;SHT31;52070;53.760;9.678;2024-03-23T08:33:22;7.88;81.70
65374;SHT31;52070;53.760;9.678;2024-03-23T08:35:57;7.98;81.95
65374;SHT31;52070;53.760;9.678;2024-03-23T08:38:25;8.01;81.35
65374;SHT31;52070;53.760;9.678;2024-03-23T08:41:05;8.19;80.78
65374;SHT31;52070;53.760;9.678;2024-03-23T08:43:35;8.29;80.59
65374;SHT31;52070;53.760;9.678;2024-03-23T08:48:38;8.54;79.08
65374;SHT31;52070;53.760;9.678;2024-03-23T08:51:05;8.53;77.78
65374;SHT31;52070;53.760;9.678;2024-03-23T08:53:33;8.54;78.71
65374;SHT31;52070;53.760;9.678;2024-03-23T08:56:00;8.37;77.24
65374;SHT31;52070;53.760;9.678;2024-03-23T08:58:29;8.30;77.21
65374;SHT31;52070;53.760;9.678;2024-03-23T09:00:57;8.47;77.65
65374;SHT31;52070;53.760;9.678;2024-03-23T09:03:24;8.49;76.88
65374;SHT31;52070;53.760;9.678;2024-03-23T09:05:51;8.78;77.07
65374;SHT31;52070;53.760;9.678;2024-03-23T09:08:18;9.05;76.57
65374;SHT31;52070;53.760;9.678;2024-03-23T09:10:45;9.11;74.86
65374;SHT31;52070;53.760;9.678;2024-03-23T09:13:11;9.11;74.54
65374;SHT31;52070;53.760;9.678;2024-03-23T09:15:49;9.14;74.63
65374;SHT31;52070;53.760;9.678;2024-03-23T09:18:15;8.77;72.61
65374;SHT31;52070;53.760;9.678;2024-03-23T09:20:42;8.91;73.87
65374;SHT31;52070;53.760;9.678;2024-03-23T09:23:08;9.00;73.43
65374;SHT31;52070;53.760;9.678;2024-03-23T09:25:38;9.08;72.93
65374;SHT31;52070;53.760;9.678;2024-03-23T09:28:05;8.81;71.89
65374;SHT31;52070;53.760;9.678;2024-03-23T09:30:35;8.64;73.32
65374;SHT31;52070;53.760;9.678;2024-03-23T09:33:01;8.70;74.13
65374;SHT31;52070;53.760;9.678;2024-03-23T09:35:28;8.63;73.05
65374;SHT31;52070;53.760;9.678;2024-03-23T09:37:53;8.70;72.34
65374;SHT31;52070;53.760;9.678;2024-03-23T09:40:21;8.96;71.99
65374;SHT31;52070;53.760;9.678;2024-03-23T09:42:50;9.17;67.82
65374;SHT31;52070;53.760;9.678;2024-03-23T09:45:21;9.00;67.29
65374;SHT31;52070;53.760;9.678;2024-03-23T09:47:47;8.92;68.53
65374;SHT31;52070;53.760;9.678;2024-03-23T09:50:16;8.70;68.63
65374;SHT31;52070;53.760;9.678;2024-03-23T09:52:42;9.04;69.06
65374;SHT31;52070;53.760;9.678;2024-03-23T09:55:09;9.34;67.79
65374;SHT31;52070;53.760;9.678;2024-03-23T09:57:35;9.52;67.69
65374;SHT31;52070;53.760;9.678;2024-03-23T10:00:02;9.66;64.99
65374;SHT31;52070;53.760;9.678;2024-03-23T10:02:29;9.69;64.53
65374;SHT31;52070;53.760;9.678;2024-03-23T10:04:56;9.96;64.65
65374;SHT31;52070;53.760;9.678;2024-03-23T10:07:23;10.12;62.08
65374;SHT31;52070;53.760;9.678;2024-03-23T10:09:51;10.13;60.80
65374;SHT31;52070;53.760;9.678;2024-03-23T10:12:18;9.83;62.79
65374;SHT31;52070;53.760;9.678;2024-03-23T10:14:45;9.83;63.80
65374;SHT31;52070;53.760;9.678;2024-03-23T10:17:16;9.76;63.03
65374;SHT31;52070;53.760;9.678;2024-03-23T10:19:45;9.55;63.81
65374;SHT31;52070;53.760;9.678;2024-03-23T10:22:22;9.27;64.83
65374;SHT31;52070;53.760;9.678;2024-03-23T10:24:50;8.96;65.37
65374;SHT31;52070;53.760;9.678;2024-03-23T10:27:17;8.74;65.95
65374;SHT31;52070;53.760;9.678;2024-03-23T10:29:45;8.68;65.39
65374;SHT31;52070;53.760;9.678;2024-03-23T10:32:12;8.60;64.61
65374;SHT31;52070;53.760;9.678;2024-03-23T10:34:39;8.47;65.56
65374;SHT31;52070;53.760;9.678;2024-03-23T10:37:06;8.42;65.91
65374;SHT31;52070;53.760;9.678;2024-03-23T10:39:38;8.46;67.03
65374;SHT31;52070;53.760;9.678;2024-03-23T10:42:05;8.59;66.77
65374;SHT31;52070;53.760;9.678;2024-03-23T10:44:33;8.73;67.11
65374;SHT31;52070;53.760;9.678;2024-03-23T10:47:00;9.34;65.19
65374;SHT31;52070;53.760;9.678;2024-03-23T10:49:29;10.07;64.20
65374;SHT31;52070;53.760;9.678;2024-03-23T10:52:05;10.36;61.64
65374;SHT31;52070;53.760;9.678;2024-03-23T10:54:33;10.82;62.29
65374;SHT31;52070;53.760;9.678;2024-03-23T10:59:31;9.03;65.23
65374;SHT31;52070;53.760;9.678;2024-03-23T11:02:00;7.81;71.30
65374;SHT31;52070;53.760;9.678;2024-03-23T11:04:35;6.97;71.13
65374;SHT31;52070;53.760;9.678;2024-03-23T11:07:02;6.68;71.92
65374;SHT31;52070;53.760;9.678;2024-03-23T11:14:51;6.97;75.92
65374;SHT31;52070;53.760;9.678;2024-03-23T11:17:21;7.30;76.53
65374;SHT31;52070;53.760;9.678;2024-03-23T11:19:58;7.48;75.01
65374;SHT31;52070;53.760;9.678;2024-03-23T11:22:40;7.55;75.74
65374;SHT31;52070;53.760;9.678;2024-03-23T11:25:24;7.55;75.21
65374;SHT31;52070;53.760;9.678;2024-03-23T11:27:54;7.48;77.25
65374;SHT31;52070;53.760;9.678;2024-03-23T11:30:25;7.01;78.10
65374;SHT31;52070;53.760;9.678;2024-03-23T11:32:55;6.36;80.33
65374;SHT31;52070;53.760;9.678;2024-03-23T11:35:34;6.15;81.79
65374;SHT31;52070;53.760;9.678;2024-03-23T11:38:30;6.04;83.81
65374;SHT31;52070;53.760;9.678;2024-03-23T11:41:02;5.83;83.94
65374;SHT31;52070;53.760;9.678;2024-03-23T11:43:28;5.70;84.80
65374;SHT31;52070;53.760;9.678;2024-03-23T11:45:55;5.71;84.10
65374;SHT31;52070;53.760;9.678;2024-03-23T11:48:23;5.86;84.59
65374;SHT31;52070;53.760;9.678;2024-03-23T11:50:54;6.00;83.92
65374;SHT31;52070;53.760;9.678;2024-03-23T11:53:24;6.90;83.68
65374;SHT31;52070;53.760;9.678;2024-03-23T11:55:57;7.67;82.56
65374;SHT31;52070;53.760;9.678;2024-03-23T11:58:24;8.03;79.75
65374;SHT31;52070;53.760;9.678;2024-03-23T12:01:02;8.35;76.78
65374;SHT31;52070;53.760;9.678;2024-03-23T12:03:29;8.66;76.01
65374;SHT31;52070;53.760;9.678;2024-03-23T12:06:02;8.77;74.09
65374;SHT31;52070;53.760;9.678;2024-03-23T12:11:12;9.11;72.24
65374;SHT31;52070;53.760;9.678;2024-03-23T12:13:39;8.35;73.24
65374;SHT31;52070;53.760;9.678;2024-03-23T12:16:17;8.02;74.80
65374;SHT31;52070;53.760;9.678;2024-03-23T12:18:47;7.78;74.76
65374;SHT31;52070;53.760;9.678;2024-03-23T12:21:15;7.46;74.00
65374;SHT31;52070;53.760;9.678;2024-03-23T12:23:42;7.31;75.55
65374;SHT31;52070;53.760;9.678;2024-03-23T12:26:11;7.16;75.58
65374;SHT31;52070;53.760;9.678;2024-03-23T12:28:38;7.01;75.65
65374;SHT31;52070;53.760;9.678;2024-03-23T12:31:05;6.92;76.22
65374;SHT31;52070;53.760;9.678;2024-03-23T12:33:31;6.95;75.46
65374;SHT31;52070;53.760;9.678;2024-03-23T12:35:58;7.51;74.79
65374;SHT31;52070;53.760;9.678;2024-03-23T12:38:24;8.19;70.24
65374;SHT31;52070;53.760;9.678;2024-03-23T12:40:51;8.80;67.66
65374;SHT31;52070;53.760;9.678;2024-03-23T12:43:18;9.24;67.99
65374;SHT31;52070;53.760;9.678;2024-03-23T12:45:47;9.69;66.78
65374;SHT31;52070;53.760;9.678;2024-03-23T12:48:15;9.97;67.75
65374;SHT31;52070;53.760;9.678;2024-03-23T12:50:41;9.97;66.49
65374;SHT31;52070;53.760;9.678;2024-03-23T12:53:07;10.14;65.83
65374;SHT31;52070;53.760;9.678;2024-03-23T12:55:36;9.62;65.87
65374;SHT31;52070;53.760;9.678;2024-03-23T12:58:03;9.01;67.89
65374;SHT31;52070;53.760;9.678;2024-03-23T13:00:30;7.95;72.86
65374;SHT31;52070;53.760;9.678;2024-03-23T13:02:57;6.39;77.56
65374;SHT31;52070;53.760;9.678;2024-03-23T13:05:23;6.07;79.43
65374;SHT31;52070;53.760;9.678;2024-03-23T13:07:49;5.67;81.21
65374;SHT31;52070;53.760;9.678;2024-03-23T13:10:15;5.49;82.94
65374;SHT31;52070;53.760;9.678;2024-03-23T13:12:42;5.42;84.12
65374;SHT31;52070;53.760;9.678;2024-03-23T13:15:08;5.23;84.88
65374;SHT31;52070;53.760;9.678;2024-03-23T13:17:35;5.35;84.51
65374;SHT31;52070;53.760;9.678;2024-03-23T13:20:02;5.64;84.87
65374;SHT31;52070;53.760;9.678;2024-03-23T13:22:29;5.94;84.30
65374;SHT31;52070;53.760;9.678;2024-03-23T13:24:55;6.10;84.06
65374;SHT31;52070;53.760;9.678;2024-03-23T13:27:22;6.25;82.61
65374;SHT31;52070;53.760;9.678;2024-03-23T13:29:48;6.61;82.97
65374;SHT31;52070;53.760;9.678;2024-03-23T13:32:16;7.19;82.27
65374;SHT31;52070;53.760;9.678;2024-03-23T13:34:41;7.48;80.42
65374;SHT31;52070;53.760;9.678;2024-03-23T13:37:08;8.07;79.20
65374;SHT31;52070;53.760;9.678;2024-03-23T13:39:35;8.60;79.87
65374;SHT31;52070;53.760;9.678;2024-03-23T13:42:02;8.66;76.94
65374;SHT31;52070;53.760;9.678;2024-03-23T13:44:29;8.28;74.20
65374;SHT31;52070;53.760;9.678;2024-03-23T13:46:55;8.32;76.79
65374;SHT31;52070;53.760;9.678;2024-03-23T13:49:26;8.07;76.69
65374;SHT31;52070;53.760;9.678;2024-03-23T13:51:54;8.23;77.68
65374;SHT31;52070;53.760;9.678;2024-03-23T13:54:20;8.45;77.72
65374;SHT31;52070;53.760;9.678;2024-03-23T13:56:50;8.40;75.49
65374;SHT31;52070;53.760;9.678;2024-03-23T13:59:16;8.32;74.68
65374;SHT31;52070;53.760;9.678;2024-03-23T14:01:44;8.21;71.63
65374;SHT31;52070;53.760;9.678;2024-03-23T14:04:12;8.13;72.41
65374;SHT31;52070;53.760;9.678;2024-03-23T14:06:39;8.32;71.42
65374;SHT31;52070;53.760;9.678;2024-03-23T14:09:05;8.76;71.17
65374;SHT31;52070;53.760;9.678;2024-03-23T14:11:35;8.88;71.37
65374;SHT31;52070;53.760;9.678;2024-03-23T14:14:02;9.20;71.02
65374;SHT31;52070;53.760;9.678;2024-03-23T14:16:30;9.53;69.56
65374;SHT31;52070;53.760;9.678;2024-03-23T14:18:57;9.71;69.89
65374;SHT31;52070;53.760;9.678;2024-03-23T14:21:24;9.56;69.16
65374;SHT31;52070;53.760;9.678;2024-03-23T14:23:50;9.25;67.54
65374;SHT31;52070;53.760;9.678;2024-03-23T14:26:17;9.03;69.00
65374;SHT31;52070;53.760;9.678;2024-03-23T14:28:43;8.49;70.66
65374;SHT31;52070;53.760;9.678;2024-03-23T14:31:10;8.26;71.82
65374;SHT31;52070;53.760;9.678;2024-03-23T14:33:39;7.98;72.23
65374;SHT31;52070;53.760;9.678;2024-03-23T14:36:16;7.82;73.28
65374;SHT31;52070;53.760;9.678;2024-03-23T14:38:42;8.30;74.37
65374;SHT31;52070;53.760;9.678;2024-03-23T14:41:08;8.21;72.59
65374;SHT31;52070;53.760;9.678;2024-03-23T14:43:34;8.15;72.64
65374;SHT31;52070;53.760;9.678;2024-03-23T14:46:12;8.81;72.13
65374;SHT31;52070;53.760;9.678;2024-03-23T14:48:39;9.58;70.80
65374;SHT31;52070;53.760;9.678;2024-03-23T14:51:07;9.79;68.67
65374;SHT31;52070;53.760;9.678;2024-03-23T14:53:35;9.46;68.98
65374;SHT31;52070;53.760;9.678;2024-03-23T14:56:02;9.78;70.50
65374;SHT31;52070;53.760;9.678;2024-03-23T14:58:29;9.72;70.67
65374;SHT31;52070;53.760;9.678;2024-03-23T15:01:07;9.59;69.04
65374;SHT31;52070;53.760;9.678;2024-03-23T15:03:38;10.07;68.74
65374;SHT31;52070;53.760;9.678;2024-03-23T15:06:06;9.75;68.41
65374;SHT31;52070;53.760;9.678;2024-03-23T15:08:32;9.96;68.73
65374;SHT31;52070;53.760;9.678;2024-03-23T15:10:59;9.53;68.41
65374;SHT31;52070;53.760;9.678;2024-03-23T15:13:26;9.20;69.91
65374;SHT31;52070;53.760;9.678;2024-03-23T15:15:52;9.20;69.87
65374;SHT31;52070;53.760;9.678;2024-03-23T15:18:18;8.74;71.16
65374;SHT31;52070;53.760;9.678;2024-03-23T15:20:54;8.35;72.90
65374;SHT31;52070;53.760;9.678;2024-03-23T15:23:22;7.83;74.63
65374;SHT31;52070;53.760;9.678;2024-03-23T15:25:58;7.61;75.70
65374;SHT31;52070;53.760;9.678;2024-03-23T15:28:25;7.58;76.73
65374;SHT31;52070;53.760;9.678;2024-03-23T15:30:52;7.44;77.32
65374;SHT31;52070;53.760;9.678;2024-03-23T15:33:19;7.24;78.08
65374;SHT31;52070;53.760;9.678;2024-03-23T15:35:45;7.26;78.97
65374;SHT31;52070;53.760;9.678;2024-03-23T15:38:11;6.69;81.34
65374;SHT31;52070;53.760;9.678;2024-03-23T15:40:38;6.38;83.45
65374;SHT31;52070;53.760;9.678;2024-03-23T15:43:04;6.36;85.18
65374;SHT31;52070;53.760;9.678;2024-03-23T15:45:31;6.35;85.53
65374;SHT31;52070;53.760;9.678;2024-03-23T15:47:58;6.31;84.91
65374;SHT31;52070;53.760;9.678;2024-03-23T15:50:25;6.12;83.72
65374;SHT31;52070;53.760;9.678;2024-03-23T15:52:51;6.05;83.76
65374;SHT31;52070;53.760;9.678;2024-03-23T15:55:17;6.02;84.16
65374;SHT31;52070;53.760;9.678;2024-03-23T15:57:43;5.97;84.37
65374;SHT31;52070;53.760;9.678;2024-03-23T16:00:10;5.95;84.19
65374;SHT31;52070;53.760;9.678;2024-03-23T16:02:38;5.97;84.17
65374;SHT31;52070;53.760;9.678;2024-03-23T16:05:05;5.83;84.86
65374;SHT31;52070;53.760;9.678;2024-03-23T16:07:33;5.74;86.19
65374;SHT31;52070;53.760;9.678;2024-03-23T16:10:00;5.64;85.44
65374;SHT31;52070;53.760;9.678;2024-03-23T16:12:31;5.75;84.86
65374;SHT31;52070;53.760;9.678;2024-03-23T16:14:57;5.87;84.68
65374;SHT31;52070;53.760;9.678;2024-03-23T16:17:23;5.91;84.19
65374;SHT31;52070;53.760;9.678;2024-03-23T16:19:50;5.86;84.02
65374;SHT31;52070;53.760;9.678;2024-03-23T16:22:16;5.74;83.66
65374;SHT31;52070;53.760;9.678;2024-03-23T16:24:44;5.66;83.51
65374;SHT31;52070;53.760;9.678;2024-03-23T16:27:10;5.73;83.30
65374;SHT31;52070;53.760;9.678;2024-03-23T16:29:37;5.91;80.64
65374;SHT31;52070;53.760;9.678;2024-03-23T16:32:03;6.02;79.57
65374;SHT31;52070;53.760;9.678;2024-03-23T16:34:30;6.14;80.13
65374;SHT31;52070;53.760;9.678;2024-03-23T16:36:55;6.10;80.41
65374;SHT31;52070;53.760;9.678;2024-03-23T16:39:22;6.12;81.42
65374;SHT31;52070;53.760;9.678;2024-03-23T16:41:48;6.17;81.66
65374;SHT31;52070;53.760;9.678;2024-03-23T16:44:15;6.14;82.36
65374;SHT31;52070;53.760;9.678;2024-03-23T16:46:41;6.12;82.11
65374;SHT31;52070;53.760;9.678;2024-03-23T16:49:09;6.11;82.23
65374;SHT31;52070;53.760;9.678;2024-03-23T16:51:35;6.10;82.28
65374;SHT31;52070;53.760;9.678;2024-03-23T16:54:02;6.14;82.35